sensor_id;sensor_type;location;lat;lon;timestamp;temperature;humidity
8662;DHT22;29684;47.722;9.388;2023-04-24T00:00:59;10.10;99.90
8662;DHT22;29684;47.722;9.388;2023-04-24T00:03:45;10.00;99.90
8662;DHT22;29684;47.722;9.388;2023-04-24T00:06:29;10.00;99.90
8662;DHT22;29684;47.722;9.388;2023-04-24T00:09:16;9.90;99.90
8662;DHT22;29684;47.722;9.388;2023-04-24T00:12:00;9.90;99.90
8662;DHT22;29684;47.722;9.388;2023-04-24T00:14:47;10.00;99.90
8662;DHT22;29684;47.722;9.388;2023-04-24T00:17:31;9.90;99.90
8662;DHT22;29684;47.722;9.388;2023-04-24T00:20:15;10.00;99.90
8662;DHT22;29684;47.722;9.388;2023-04-24T00:22:59;10.00;99.90
8662;DHT22;29684;47.722;9.388;2023-04-24T00:25:43;9.90;99.90
8662;DHT22;29684;47.722;9.388;2023-04-24T00:28:28;10.00;99.90
8662;DHT22;29684;47.722;9.388;2023-04-24T00:31:12;10.00;99.90
8662;DHT22;29684;47.722;9.388;2023-04-24T00:33:57;10.00;99.90
8662;DHT22;29684;47.722;9.388;2023-04-24T00:36:41;10.00;99.90
8662;DHT22;29684;47.722;9.388;2023-04-24T00:39:25;10.00;99.90
8662;DHT22;29684;47.722;9.388;2023-04-24T00:42:09;10.00;99.90
8662;DHT22;29684;47.722;9.388;2023-04-24T00:44:53;10.00;99.90
8662;DHT22;29684;47.722;9.388;2023-04-24T00:47:38;10.00;99.90
8662;DHT22;29684;47.722;9.388;2023-04-24T00:50:24;10.10;99.90
8662;DHT22;29684;47.722;9.388;2023-04-24T00:53:08;10.20;99.90
8662;DHT22;29684;47.722;9.388;2023-04-24T00:55:52;10.10;99.90
8662;DHT22;29684;47.722;9.388;2023-04-24T00:58:36;10.10;99.90
8662;DHT22;29684;47.722;9.388;2023-04-24T01:01:22;10.10;99.90
8662;DHT22;29684;47.722;9.388;2023-04-24T01:04:06;10.10;99.90
8662;DHT22;29684;47.722;9.388;2023-04-24T01:06:51;10.10;99.90
8662;DHT22;29684;47.722;9.388;2023-04-24T01:09:40;10.00;99.90
8662;DHT22;29684;47.722;9.388;2023-04-24T01:12:28;10.00;99.90
8662;DHT22;29684;47.722;9.388;2023-04-24T01:15:12;10.10;99.90
8662;DHT22;29684;47.722;9.388;2023-04-24T01:17:56;10.10;99.90
8662;DHT22;29684;47.722;9.388;2023-04-24T01:20:42;10.10;99.90
8662;DHT22;29684;47.722;9.388;2023-04-24T01:23:28;10.00;99.90
8662;DHT22;29684;47.722;9.388;2023-04-24T01:26:17;10.10;99.90
8662;DHT22;29684;47.722;9.388;2023-04-24T01:29:03;10.10;99.90
8662;DHT22;29684;47.722;9.388;2023-04-24T01:31:47;10.10;99.90
8662;DHT22;29684;47.722;9.388;2023-04-24T01:34:32;10.20;99.90
8662;DHT22;29684;47.722;9.388;2023-04-24T01:37:17;10.10;99.90
8662;DHT22;29684;47.722;9.388;2023-04-24T01:40:01;10.10;99.90
8662;DHT22;29684;47.722;9.388;2023-04-24T01:42:47;10.10;99.90
8662;DHT22;29684;47.722;9.388;2023-04-24T01:45:32;10.00;99.90
8662;DHT22;29684;47.722;9.388;2023-04-24T01:48:16;9.90;99.90
8662;DHT22;29684;47.722;9.388;2023-04-24T01:51:00;9.90;99.90
8662;DHT22;29684;47.722;9.388;2023-04-24T01:53:44;9.80;99.90
8662;DHT22;29684;47.722;9.388;2023-04-24T01:56:29;9.80;99.90
8662;DHT22;29684;47.722;9.388;2023-04-24T01:59:15;9.80;99.90
8662;DHT22;29684;47.722;9.388;2023-04-24T02:02:01;9.80;99.90
8662;DHT22;29684;47.722;9.388;2023-04-24T02:04:46;9.70;99.90
8662;DHT22;29684;47.722;9.388;2023-04-24T02:07:30;9.70;99.90
8662;DHT22;29684;47.722;9.388;2023-04-24T02:10:14;9.70;99.90
8662;DHT22;29684;47.722;9.388;2023-04-24T02:12:59;9.60;99.90
8662;DHT22;29684;47.722;9.388;2023-04-24T02:15:44;9.60;99.90
8662;DHT22;29684;47.722;9.388;2023-04-24T02:18:28;9.60;99.90
8662;DHT22;29684;47.722;9.388;2023-04-24T02:21:13;9.60;99.90
8662;DHT22;29684;47.722;9.388;2023-04-24T02:23:57;9.60;99.90
8662;DHT22;29684;47.722;9.388;2023-04-24T02:26:41;9.60;99.90
8662;DHT22;29684;47.722;9.388;2023-04-24T02:29:25;9.60;99.90
8662;DHT22;29684;47.722;9.388;2023-04-24T02:32:09;9.60;99.90
8662;DHT22;29684;47.722;9.388;2023-04-24T02:34:56;9.60;99.90
8662;DHT22;29684;47.722;9.388;2023-04-24T02:37:40;9.50;99.90
8662;DHT22;29684;47.722;9.388;2023-04-24T02:40:24;9.50;99.90
8662;DHT22;29684;47.722;9.388;2023-04-24T02:43:08;9.60;99.90
8662;DHT22;29684;47.722;9.388;2023-04-24T02:45:53;9.50;99.90
8662;DHT22;29684;47.722;9.388;2023-04-24T02:48:37;9.50;99.90
8662;DHT22;29684;47.722;9.388;2023-04-24T02:51:21;9.40;99.90
8662;DHT22;29684;47.722;9.388;2023-04-24T02:54:05;9.60;99.90
8662;DHT22;29684;47.722;9.388;2023-04-24T02:56:49;9.60;99.90
8662;DHT22;29684;47.722;9.388;2023-04-24T02:59:33;9.50;99.90
8662;DHT22;29684;47.722;9.388;2023-04-24T03:02:18;9.50;99.90
8662;DHT22;29684;47.722;9.388;2023-04-24T03:05:02;9.60;99.90
8662;DHT22;29684;47.722;9.388;2023-04-24T03:07:46;9.50;99.90
8662;DHT22;29684;47.722;9.388;2023-04-24T03:10:31;9.50;99.90
8662;DHT22;29684;47.722;9.388;2023-04-24T03:13:16;9.50;99.90
8662;DHT22;29684;47.722;9.388;2023-04-24T03:16:00;9.50;99.90
8662;DHT22;29684;47.722;9.388;2023-04-24T03:18:44;9.50;99.90
8662;DHT22;29684;47.722;9.388;2023-04-24T03:21:28;9.50;99.90
8662;DHT22;29684;47.722;9.388;2023-04-24T03:24:13;9.50;99.90
8662;DHT22;29684;47.722;9.388;2023-04-24T03:26:57;9.50;99.90
8662;DHT22;29684;47.722;9.388;2023-04-24T03:29:41;9.50;99.90
8662;DHT22;29684;47.722;9.388;2023-04-24T03:32:25;9.30;99.90
8662;DHT22;29684;47.722;9.388;2023-04-24T03:35:09;9.40;99.90
8662;DHT22;29684;47.722;9.388;2023-04-24T03:37:53;9.40;99.90
8662;DHT22;29684;47.722;9.388;2023-04-24T03:40:37;9.40;99.90
8662;DHT22;29684;47.722;9.388;2023-04-24T03:43:21;9.40;99.90
8662;DHT22;29684;47.722;9.388;2023-04-24T03:46:05;9.30;99.90
8662;DHT22;29684;47.722;9.388;2023-04-24T03:48:50;9.30;99.90
8662;DHT22;29684;47.722;9.388;2023-04-24T03:51:35;9.40;99.90
8662;DHT22;29684;47.722;9.388;2023-04-24T03:54:19;9.40;99.90
8662;DHT22;29684;47.722;9.388;2023-04-24T03:57:04;9.30;99.90
8662;DHT22;29684;47.722;9.388;2023-04-24T03:59:48;9.30;99.90
8662;DHT22;29684;47.722;9.388;2023-04-24T04:02:32;9.30;99.90
8662;DHT22;29684;47.722;9.388;2023-04-24T04:05:16;9.30;99.90
8662;DHT22;29684;47.722;9.388;2023-04-24T04:08:01;9.30;99.90
8662;DHT22;29684;47.722;9.388;2023-04-24T04:10:46;9.20;99.90
8662;DHT22;29684;47.722;9.388;2023-04-24T04:13:30;9.20;99.90
8662;DHT22;29684;47.722;9.388;2023-04-24T04:16:14;9.20;99.90
8662;DHT22;29684;47.722;9.388;2023-04-24T04:19:00;9.20;99.90
8662;DHT22;29684;47.722;9.388;2023-04-24T04:21:47;9.20;99.90
8662;DHT22;29684;47.722;9.388;2023-04-24T04:24:36;9.20;99.90
8662;DHT22;29684;47.722;9.388;2023-04-24T04:27:22;9.20;99.90
8662;DHT22;29684;47.722;9.388;2023-04-24T04:30:07;9.20;99.90
8662;DHT22;29684;47.722;9.388;2023-04-24T04:32:52;9.20;99.90
8662;DHT22;29684;47.722;9.388;2023-04-24T04:35:36;9.20;99.90
8662;DHT22;29684;47.722;9.388;2023-04-24T04:38:20;9.20;99.90
8662;DHT22;29684;47.722;9.388;2023-04-24T04:41:04;9.20;99.90
8662;DHT22;29684;47.722;9.388;2023-04-24T04:43:49;9.20;99.90
8662;DHT22;29684;47.722;9.388;2023-04-24T04:46:34;9.20;99.90
8662;DHT22;29684;47.722;9.388;2023-04-24T04:49:18;9.20;99.90
8662;DHT22;29684;47.722;9.388;2023-04-24T04:52:05;9.20;99.90
8662;DHT22;29684;47.722;9.388;2023-04-24T04:54:49;9.30;99.90
8662;DHT22;29684;47.722;9.388;2023-04-24T04:57:33;9.30;99.90
8662;DHT22;29684;47.722;9.388;2023-04-24T05:00:18;9.30;99.90
8662;DHT22;29684;47.722;9.388;2023-04-24T05:03:03;9.30;99.90
8662;DHT22;29684;47.722;9.388;2023-04-24T05:05:47;9.30;99.90
8662;DHT22;29684;47.722;9.388;2023-04-24T05:08:31;9.40;99.90
8662;DHT22;29684;47.722;9.388;2023-04-24T05:11:15;9.40;99.90
8662;DHT22;29684;47.722;9.388;2023-04-24T05:14:00;9.40;99.90
8662;DHT22;29684;47.722;9.388;2023-04-24T05:16:44;9.40;99.90
8662;DHT22;29684;47.722;9.388;2023-04-24T05:19:28;9.30;99.90
8662;DHT22;29684;47.722;9.388;2023-04-24T05:22:12;9.50;99.90
8662;DHT22;29684;47.722;9.388;2023-04-24T05:24:56;9.40;99.90
8662;DHT22;29684;47.722;9.388;2023-04-24T05:27:41;9.40;99.90
8662;DHT22;29684;47.722;9.388;2023-04-24T05:30:25;9.30;99.90
8662;DHT22;29684;47.722;9.388;2023-04-24T05:33:09;9.20;99.90
8662;DHT22;29684;47.722;9.388;2023-04-24T05:35:54;9.20;99.90
8662;DHT22;29684;47.722;9.388;2023-04-24T05:38:38;9.60;99.90
8662;DHT22;29684;47.722;9.388;2023-04-24T05:41:22;9.20;99.90
8662;DHT22;29684;47.722;9.388;2023-04-24T05:44:07;9.20;99.90
8662;DHT22;29684;47.722;9.388;2023-04-24T05:46:51;9.10;99.90
8662;DHT22;29684;47.722;9.388;2023-04-24T05:49:35;9.10;99.90
8662;DHT22;29684;47.722;9.388;2023-04-24T05:52:19;9.10;99.90
8662;DHT22;29684;47.722;9.388;2023-04-24T05:55:04;9.10;99.90
8662;DHT22;29684;47.722;9.388;2023-04-24T05:57:49;9.10;99.90
8662;DHT22;29684;47.722;9.388;2023-04-24T06:00:34;8.90;99.90
8662;DHT22;29684;47.722;9.388;2023-04-24T06:03:18;8.90;99.90
8662;DHT22;29684;47.722;9.388;2023-04-24T06:06:02;8.90;99.90
8662;DHT22;29684;47.722;9.388;2023-04-24T06:08:47;8.90;99.90
8662;DHT22;29684;47.722;9.388;2023-04-24T06:11:31;8.90;99.90
8662;DHT22;29684;47.722;9.388;2023-04-24T06:14:16;9.00;99.90
8662;DHT22;29684;47.722;9.388;2023-04-24T06:17:00;9.00;99.90
8662;DHT22;29684;47.722;9.388;2023-04-24T06:19:44;9.10;99.90
8662;DHT22;29684;47.722;9.388;2023-04-24T06:22:29;9.10;99.90
8662;DHT22;29684;47.722;9.388;2023-04-24T06:25:13;9.20;99.90
8662;DHT22;29684;47.722;9.388;2023-04-24T06:27:57;9.30;99.90
8662;DHT22;29684;47.722;9.388;2023-04-24T06:30:42;9.30;99.90
8662;DHT22;29684;47.722;9.388;2023-04-24T06:33:27;9.40;99.90
8662;DHT22;29684;47.722;9.388;2023-04-24T06:36:12;9.50;99.90
8662;DHT22;29684;47.722;9.388;2023-04-24T06:38:56;9.70;99.90
8662;DHT22;29684;47.722;9.388;2023-04-24T06:41:42;9.80;99.90
8662;DHT22;29684;47.722;9.388;2023-04-24T06:44:26;9.80;99.90
8662;DHT22;29684;47.722;9.388;2023-04-24T06:47:10;9.90;99.90
8662;DHT22;29684;47.722;9.388;2023-04-24T06:49:56;9.80;99.90
8662;DHT22;29684;47.722;9.388;2023-04-24T06:52:41;9.50;99.90
8662;DHT22;29684;47.722;9.388;2023-04-24T06:55:25;9.60;99.90
8662;DHT22;29684;47.722;9.388;2023-04-24T06:58:09;9.80;99.90
8662;DHT22;29684;47.722;9.388;2023-04-24T07:00:54;10.10;99.90
8662;DHT22;29684;47.722;9.388;2023-04-24T07:03:39;10.10;99.90
8662;DHT22;29684;47.722;9.388;2023-04-24T07:06:24;10.20;99.90
8662;DHT22;29684;47.722;9.388;2023-04-24T07:09:08;10.20;99.90
8662;DHT22;29684;47.722;9.388;2023-04-24T07:11:53;10.10;99.90
8662;DHT22;29684;47.722;9.388;2023-04-24T07:14:37;10.00;99.90
8662;DHT22;29684;47.722;9.388;2023-04-24T07:17:22;10.10;99.90
8662;DHT22;29684;47.722;9.388;2023-04-24T07:20:06;10.40;99.90
8662;DHT22;29684;47.722;9.388;2023-04-24T07:22:53;10.40;99.90
8662;DHT22;29684;47.722;9.388;2023-04-24T07:25:37;10.40;99.90
8662;DHT22;29684;47.722;9.388;2023-04-24T07:28:22;10.40;99.90
8662;DHT22;29684;47.722;9.388;2023-04-24T07:31:07;10.60;99.90
8662;DHT22;29684;47.722;9.388;2023-04-24T07:33:52;10.60;99.90
8662;DHT22;29684;47.722;9.388;2023-04-24T07:36:36;10.50;99.90
8662;DHT22;29684;47.722;9.388;2023-04-24T07:39:22;10.50;99.90
8662;DHT22;29684;47.722;9.388;2023-04-24T07:42:07;10.50;99.90
8662;DHT22;29684;47.722;9.388;2023-04-24T07:44:51;10.70;99.90
8662;DHT22;29684;47.722;9.388;2023-04-24T07:47:36;10.60;99.90
8662;DHT22;29684;47.722;9.388;2023-04-24T07:50:22;10.60;99.90
8662;DHT22;29684;47.722;9.388;2023-04-24T07:53:06;10.70;99.90
8662;DHT22;29684;47.722;9.388;2023-04-24T07:55:50;10.70;99.90
8662;DHT22;29684;47.722;9.388;2023-04-24T07:58:35;10.80;99.90
8662;DHT22;29684;47.722;9.388;2023-04-24T08:01:19;10.90;99.90
8662;DHT22;29684;47.722;9.388;2023-04-24T08:04:03;11.00;99.90
8662;DHT22;29684;47.722;9.388;2023-04-24T08:06:48;11.10;99.90
8662;DHT22;29684;47.722;9.388;2023-04-24T08:09:32;11.20;99.90
8662;DHT22;29684;47.722;9.388;2023-04-24T08:12:16;10.90;99.90
8662;DHT22;29684;47.722;9.388;2023-04-24T08:15:00;11.00;99.90
8662;DHT22;29684;47.722;9.388;2023-04-24T08:17:44;11.30;99.90
8662;DHT22;29684;47.722;9.388;2023-04-24T08:20:29;11.60;99.90
8662;DHT22;29684;47.722;9.388;2023-04-24T08:23:13;11.50;99.90
8662;DHT22;29684;47.722;9.388;2023-04-24T08:25:57;11.60;99.90
8662;DHT22;29684;47.722;9.388;2023-04-24T08:28:42;11.30;99.90
8662;DHT22;29684;47.722;9.388;2023-04-24T08:31:26;11.10;99.90
8662;DHT22;29684;47.722;9.388;2023-04-24T08:34:10;11.00;99.90
8662;DHT22;29684;47.722;9.388;2023-04-24T08:36:54;10.90;99.90
8662;DHT22;29684;47.722;9.388;2023-04-24T08:39:39;11.00;99.90
8662;DHT22;29684;47.722;9.388;2023-04-24T08:42:23;11.00;99.90
8662;DHT22;29684;47.722;9.388;2023-04-24T08:45:09;11.00;99.90
8662;DHT22;29684;47.722;9.388;2023-04-24T08:47:53;11.10;99.90
8662;DHT22;29684;47.722;9.388;2023-04-24T08:50:41;11.20;99.90
8662;DHT22;29684;47.722;9.388;2023-04-24T08:53:26;11.20;99.90
8662;DHT22;29684;47.722;9.388;2023-04-24T08:56:11;11.10;99.90
8662;DHT22;29684;47.722;9.388;2023-04-24T08:58:57;11.20;99.90
8662;DHT22;29684;47.722;9.388;2023-04-24T09:01:41;11.20;99.90
8662;DHT22;29684;47.722;9.388;2023-04-24T09:04:27;11.10;99.90
8662;DHT22;29684;47.722;9.388;2023-04-24T09:07:14;13.10;99.90
8662;DHT22;29684;47.722;9.388;2023-04-24T09:10:01;11.10;99.90
8662;DHT22;29684;47.722;9.388;2023-04-24T09:12:46;11.30;99.90
8662;DHT22;29684;47.722;9.388;2023-04-24T09:15:34;11.50;99.90
8662;DHT22;29684;47.722;9.388;2023-04-24T09:18:19;11.90;99.90
8662;DHT22;29684;47.722;9.388;2023-04-24T09:21:07;12.00;99.90
8662;DHT22;29684;47.722;9.388;2023-04-24T09:23:59;12.10;99.90
8662;DHT22;29684;47.722;9.388;2023-04-24T09:26:44;12.20;99.90
8662;DHT22;29684;47.722;9.388;2023-04-24T09:29:29;12.20;99.90
8662;DHT22;29684;47.722;9.388;2023-04-24T09:32:21;12.00;99.90
8662;DHT22;29684;47.722;9.388;2023-04-24T09:37:50;12.10;99.90
8662;DHT22;29684;47.722;9.388;2023-04-24T09:40:35;12.20;99.90
8662;DHT22;29684;47.722;9.388;2023-04-24T09:43:19;12.30;99.90
8662;DHT22;29684;47.722;9.388;2023-04-24T09:46:06;12.20;99.90
8662;DHT22;29684;47.722;9.388;2023-04-24T09:48:50;12.00;99.90
8662;DHT22;29684;47.722;9.388;2023-04-24T09:51:36;12.20;99.90
8662;DHT22;29684;47.722;9.388;2023-04-24T09:54:21;12.00;99.90
8662;DHT22;29684;47.722;9.388;2023-04-24T09:57:08;12.00;99.90
8662;DHT22;29684;47.722;9.388;2023-04-24T09:59:53;11.90;99.90
8662;DHT22;29684;47.722;9.388;2023-04-24T10:02:37;11.80;99.90
8662;DHT22;29684;47.722;9.388;2023-04-24T10:05:33;11.70;99.90
8662;DHT22;29684;47.722;9.388;2023-04-24T10:08:17;11.80;99.90
8662;DHT22;29684;47.722;9.388;2023-04-24T10:11:02;12.00;99.90
8662;DHT22;29684;47.722;9.388;2023-04-24T10:13:46;12.40;99.90
8662;DHT22;29684;47.722;9.388;2023-04-24T10:16:31;12.70;99.90
8662;DHT22;29684;47.722;9.388;2023-04-24T10:19:16;12.50;99.90
8662;DHT22;29684;47.722;9.388;2023-04-24T10:22:03;12.60;99.90
8662;DHT22;29684;47.722;9.388;2023-04-24T10:24:48;12.40;99.90
8662;DHT22;29684;47.722;9.388;2023-04-24T10:27:34;12.50;99.90
8662;DHT22;29684;47.722;9.388;2023-04-24T10:30:20;12.50;99.90
8662;DHT22;29684;47.722;9.388;2023-04-24T10:33:06;12.60;99.90
8662;DHT22;29684;47.722;9.388;2023-04-24T10:35:55;12.70;99.90
8662;DHT22;29684;47.722;9.388;2023-04-24T10:38:43;12.60;99.90
8662;DHT22;29684;47.722;9.388;2023-04-24T10:41:30;12.80;99.90
8662;DHT22;29684;47.722;9.388;2023-04-24T10:44:15;12.60;99.90
8662;DHT22;29684;47.722;9.388;2023-04-24T10:47:00;12.50;99.90
8662;DHT22;29684;47.722;9.388;2023-04-24T10:49:45;12.50;99.90
8662;DHT22;29684;47.722;9.388;2023-04-24T10:52:44;12.30;99.90
8662;DHT22;29684;47.722;9.388;2023-04-24T10:55:43;12.10;99.90
8662;DHT22;29684;47.722;9.388;2023-04-24T10:58:49;12.10;99.90
8662;DHT22;29684;47.722;9.388;2023-04-24T11:01:33;12.00;99.90
8662;DHT22;29684;47.722;9.388;2023-04-24T11:04:29;12.10;99.90
8662;DHT22;29684;47.722;9.388;2023-04-24T11:07:15;12.10;99.90
8662;DHT22;29684;47.722;9.388;2023-04-24T11:09:59;12.30;99.90
8662;DHT22;29684;47.722;9.388;2023-04-24T11:12:45;12.00;99.90
8662;DHT22;29684;47.722;9.388;2023-04-24T11:15:29;12.30;99.90
8662;DHT22;29684;47.722;9.388;2023-04-24T11:18:15;12.30;99.90
8662;DHT22;29684;47.722;9.388;2023-04-24T11:20:59;12.30;99.90
8662;DHT22;29684;47.722;9.388;2023-04-24T11:23:54;12.50;99.90
8662;DHT22;29684;47.722;9.388;2023-04-24T11:26:39;12.80;99.90
8662;DHT22;29684;47.722;9.388;2023-04-24T11:29:44;13.00;99.90
8662;DHT22;29684;47.722;9.388;2023-04-24T11:32:48;13.30;99.90
8662;DHT22;29684;47.722;9.388;2023-04-24T11:35:40;13.20;99.90
8662;DHT22;29684;47.722;9.388;2023-04-24T11:38:24;13.50;99.90
8662;DHT22;29684;47.722;9.388;2023-04-24T11:41:09;13.40;99.90
8662;DHT22;29684;47.722;9.388;2023-04-24T11:43:55;13.60;99.90
8662;DHT22;29684;47.722;9.388;2023-04-24T11:46:40;13.20;99.90
8662;DHT22;29684;47.722;9.388;2023-04-24T11:49:24;13.10;99.90
8662;DHT22;29684;47.722;9.388;2023-04-24T11:52:08;12.90;99.90
8662;DHT22;29684;47.722;9.388;2023-04-24T11:54:53;13.00;99.90
8662;DHT22;29684;47.722;9.388;2023-04-24T11:57:37;12.70;99.90
8662;DHT22;29684;47.722;9.388;2023-04-24T12:03:08;12.70;99.90
8662;DHT22;29684;47.722;9.388;2023-04-24T12:05:53;12.70;99.90
8662;DHT22;29684;47.722;9.388;2023-04-24T12:08:48;12.90;99.90
8662;DHT22;29684;47.722;9.388;2023-04-24T12:11:33;13.00;99.90
8662;DHT22;29684;47.722;9.388;2023-04-24T12:14:17;13.40;99.90
8662;DHT22;29684;47.722;9.388;2023-04-24T12:17:03;13.40;99.90
8662;DHT22;29684;47.722;9.388;2023-04-24T12:19:47;13.10;99.90
8662;DHT22;29684;47.722;9.388;2023-04-24T12:22:52;13.00;99.90
8662;DHT22;29684;47.722;9.388;2023-04-24T12:25:38;13.00;99.90
8662;DHT22;29684;47.722;9.388;2023-04-24T12:28:23;13.20;99.90
8662;DHT22;29684;47.722;9.388;2023-04-24T12:31:07;13.20;99.90
8662;DHT22;29684;47.722;9.388;2023-04-24T12:33:52;13.00;99.90
8662;DHT22;29684;47.722;9.388;2023-04-24T12:36:36;13.10;99.90
8662;DHT22;29684;47.722;9.388;2023-04-24T12:39:20;13.20;99.90
8662;DHT22;29684;47.722;9.388;2023-04-24T12:42:07;13.80;99.90
8662;DHT22;29684;47.722;9.388;2023-04-24T12:44:57;14.00;99.90
8662;DHT22;29684;47.722;9.388;2023-04-24T12:47:43;14.40;99.90
8662;DHT22;29684;47.722;9.388;2023-04-24T12:50:28;14.30;99.90
8662;DHT22;29684;47.722;9.388;2023-04-24T12:53:12;14.00;99.90
8662;DHT22;29684;47.722;9.388;2023-04-24T12:55:57;13.90;99.90
8662;DHT22;29684;47.722;9.388;2023-04-24T12:58:42;14.10;99.90
8662;DHT22;29684;47.722;9.388;2023-04-24T13:01:26;13.90;99.90
8662;DHT22;29684;47.722;9.388;2023-04-24T13:04:10;14.40;99.90
8662;DHT22;29684;47.722;9.388;2023-04-24T13:06:55;15.10;99.90
8662;DHT22;29684;47.722;9.388;2023-04-24T13:09:39;15.10;99.90
8662;DHT22;29684;47.722;9.388;2023-04-24T13:12:23;15.30;99.90
8662;DHT22;29684;47.722;9.388;2023-04-24T13:15:09;13.20;99.90
8662;DHT22;29684;47.722;9.388;2023-04-24T13:17:53;15.30;99.90
8662;DHT22;29684;47.722;9.388;2023-04-24T13:20:37;15.50;99.90
8662;DHT22;29684;47.722;9.388;2023-04-24T13:23:22;15.30;99.90
8662;DHT22;29684;47.722;9.388;2023-04-24T13:26:06;15.70;99.90
8662;DHT22;29684;47.722;9.388;2023-04-24T13:28:51;16.00;99.90
8662;DHT22;29684;47.722;9.388;2023-04-24T13:31:35;16.30;99.90
8662;DHT22;29684;47.722;9.388;2023-04-24T13:34:19;16.50;99.90
8662;DHT22;29684;47.722;9.388;2023-04-24T13:37:04;16.50;99.90
8662;DHT22;29684;47.722;9.388;2023-04-24T13:39:49;16.30;99.90
8662;DHT22;29684;47.722;9.388;2023-04-24T13:42:33;16.00;99.90
8662;DHT22;29684;47.722;9.388;2023-04-24T13:45:18;16.10;99.90
8662;DHT22;29684;47.722;9.388;2023-04-24T13:48:03;16.80;99.90
8662;DHT22;29684;47.722;9.388;2023-04-24T13:50:47;15.80;99.90
8662;DHT22;29684;47.722;9.388;2023-04-24T13:53:33;16.00;99.90
8662;DHT22;29684;47.722;9.388;2023-04-24T13:56:20;16.40;99.90
8662;DHT22;29684;47.722;9.388;2023-04-24T13:59:04;16.10;99.90
8662;DHT22;29684;47.722;9.388;2023-04-24T14:01:49;16.20;99.90
8662;DHT22;29684;47.722;9.388;2023-04-24T14:04:33;17.30;99.90
8662;DHT22;29684;47.722;9.388;2023-04-24T14:07:17;17.60;99.90
8662;DHT22;29684;47.722;9.388;2023-04-24T14:10:02;17.60;99.90
8662;DHT22;29684;47.722;9.388;2023-04-24T14:12:47;17.60;99.20
8662;DHT22;29684;47.722;9.388;2023-04-24T14:15:32;17.40;98.90
8662;DHT22;29684;47.722;9.388;2023-04-24T14:18:16;16.80;99.60
8662;DHT22;29684;47.722;9.388;2023-04-24T14:21:00;17.20;99.90
8662;DHT22;29684;47.722;9.388;2023-04-24T14:23:45;16.40;99.90
8662;DHT22;29684;47.722;9.388;2023-04-24T14:26:29;15.10;99.90
8662;DHT22;29684;47.722;9.388;2023-04-24T14:29:14;15.10;99.90
8662;DHT22;29684;47.722;9.388;2023-04-24T14:31:58;15.40;99.90
8662;DHT22;29684;47.722;9.388;2023-04-24T14:34:42;14.90;99.90
8662;DHT22;29684;47.722;9.388;2023-04-24T14:37:27;14.30;99.90
8662;DHT22;29684;47.722;9.388;2023-04-24T14:40:11;13.90;99.90
8662;DHT22;29684;47.722;9.388;2023-04-24T14:42:56;13.80;99.90
8662;DHT22;29684;47.722;9.388;2023-04-24T14:45:41;13.70;99.90
8662;DHT22;29684;47.722;9.388;2023-04-24T14:48:25;13.60;99.90
8662;DHT22;29684;47.722;9.388;2023-04-24T14:51:09;13.60;99.90
8662;DHT22;29684;47.722;9.388;2023-04-24T14:53:54;13.80;99.90
8662;DHT22;29684;47.722;9.388;2023-04-24T14:56:38;13.70;99.90
8662;DHT22;29684;47.722;9.388;2023-04-24T14:59:24;13.80;99.90
8662;DHT22;29684;47.722;9.388;2023-04-24T15:02:09;13.80;99.90
8662;DHT22;29684;47.722;9.388;2023-04-24T15:04:53;14.10;99.90
8662;DHT22;29684;47.722;9.388;2023-04-24T15:07:38;14.10;99.90
8662;DHT22;29684;47.722;9.388;2023-04-24T15:10:22;14.00;99.90
8662;DHT22;29684;47.722;9.388;2023-04-24T15:13:08;14.00;99.90
8662;DHT22;29684;47.722;9.388;2023-04-24T15:15:52;13.90;99.90
8662;DHT22;29684;47.722;9.388;2023-04-24T15:18:36;14.20;99.90
8662;DHT22;29684;47.722;9.388;2023-04-24T15:21:21;14.20;99.90
8662;DHT22;29684;47.722;9.388;2023-04-24T15:24:05;14.40;99.90
8662;DHT22;29684;47.722;9.388;2023-04-24T15:26:49;13.90;99.90
8662;DHT22;29684;47.722;9.388;2023-04-24T15:29:33;13.50;99.90
8662;DHT22;29684;47.722;9.388;2023-04-24T15:32:18;13.40;99.90
8662;DHT22;29684;47.722;9.388;2023-04-24T15:35:02;13.10;99.90
8662;DHT22;29684;47.722;9.388;2023-04-24T15:37:46;12.80;99.90
8662;DHT22;29684;47.722;9.388;2023-04-24T15:40:30;13.00;99.90
8662;DHT22;29684;47.722;9.388;2023-04-24T15:43:14;13.90;99.90
8662;DHT22;29684;47.722;9.388;2023-04-24T15:46:03;13.80;99.90
8662;DHT22;29684;47.722;9.388;2023-04-24T15:48:47;13.50;99.90
8662;DHT22;29684;47.722;9.388;2023-04-24T15:51:31;13.40;99.90
8662;DHT22;29684;47.722;9.388;2023-04-24T15:54:15;13.90;99.90
8662;DHT22;29684;47.722;9.388;2023-04-24T15:56:59;13.60;99.90
8662;DHT22;29684;47.722;9.388;2023-04-24T15:59:44;13.40;99.90
8662;DHT22;29684;47.722;9.388;2023-04-24T16:02:29;14.60;99.90
8662;DHT22;29684;47.722;9.388;2023-04-24T16:05:13;15.10;99.90
8662;DHT22;29684;47.722;9.388;2023-04-24T16:07:57;15.10;99.90
8662;DHT22;29684;47.722;9.388;2023-04-24T16:10:42;15.40;99.90
8662;DHT22;29684;47.722;9.388;2023-04-24T16:13:27;16.40;99.90
8662;DHT22;29684;47.722;9.388;2023-04-24T16:16:12;17.90;99.90
8662;DHT22;29684;47.722;9.388;2023-04-24T16:18:56;18.60;99.50
8662;DHT22;29684;47.722;9.388;2023-04-24T16:21:40;18.20;99.00
8662;DHT22;29684;47.722;9.388;2023-04-24T16:24:24;17.90;98.90
8662;DHT22;29684;47.722;9.388;2023-04-24T16:27:09;17.10;99.20
8662;DHT22;29684;47.722;9.388;2023-04-24T16:29:54;17.30;99.50
8662;DHT22;29684;47.722;9.388;2023-04-24T16:32:37;17.20;99.30
8662;DHT22;29684;47.722;9.388;2023-04-24T16:35:22;16.80;99.50
8662;DHT22;29684;47.722;9.388;2023-04-24T16:38:06;16.10;99.90
8662;DHT22;29684;47.722;9.388;2023-04-24T16:40:51;16.20;99.90
8662;DHT22;29684;47.722;9.388;2023-04-24T16:43:35;15.80;99.90
8662;DHT22;29684;47.722;9.388;2023-04-24T16:46:19;15.60;99.90
8662;DHT22;29684;47.722;9.388;2023-04-24T16:49:03;15.80;99.90
8662;DHT22;29684;47.722;9.388;2023-04-24T16:51:49;16.90;99.90
8662;DHT22;29684;47.722;9.388;2023-04-24T16:54:33;16.20;99.90
8662;DHT22;29684;47.722;9.388;2023-04-24T16:57:18;15.40;99.90
8662;DHT22;29684;47.722;9.388;2023-04-24T17:00:03;14.90;99.90
8662;DHT22;29684;47.722;9.388;2023-04-24T17:02:48;15.00;99.90
8662;DHT22;29684;47.722;9.388;2023-04-24T17:05:33;15.00;99.90
8662;DHT22;29684;47.722;9.388;2023-04-24T17:08:17;14.10;99.90
8662;DHT22;29684;47.722;9.388;2023-04-24T17:11:02;13.50;99.90
8662;DHT22;29684;47.722;9.388;2023-04-24T17:13:47;13.30;99.90
8662;DHT22;29684;47.722;9.388;2023-04-24T17:16:32;13.10;99.90
8662;DHT22;29684;47.722;9.388;2023-04-24T17:19:16;12.90;99.90
8662;DHT22;29684;47.722;9.388;2023-04-24T17:22:00;12.60;99.90
8662;DHT22;29684;47.722;9.388;2023-04-24T17:24:44;12.40;99.90
8662;DHT22;29684;47.722;9.388;2023-04-24T17:27:28;12.30;99.90
8662;DHT22;29684;47.722;9.388;2023-04-24T17:30:13;12.20;99.90
8662;DHT22;29684;47.722;9.388;2023-04-24T17:32:57;12.20;99.90
8662;DHT22;29684;47.722;9.388;2023-04-24T17:35:41;12.10;99.90
8662;DHT22;29684;47.722;9.388;2023-04-24T17:38:27;12.00;99.90
8662;DHT22;29684;47.722;9.388;2023-04-24T17:41:11;12.10;99.90
8662;DHT22;29684;47.722;9.388;2023-04-24T17:43:59;12.20;99.90
8662;DHT22;29684;47.722;9.388;2023-04-24T17:46:43;12.30;99.90
8662;DHT22;29684;47.722;9.388;2023-04-24T17:49:27;12.10;99.90